Aérodrome :
LOGIN :

S'inscrire | Disclaimer

   EN    FR    IT 

 










Légende :    VFR   VFR Marginal   IFR   IFR Intensif   IFR Très Intensif
Visi : 
Plafond : 
>= 8 km
>= 3000ft
5 à 8 km
1000 à 3000 ft
1500m à 5 km
500 à 1000 ft
800 à 1500m
200 à 500 ft
< 800m
< 200 ft
Symboles :   Orages  Brouillard  Fortes neiges  Fortes précipitations  Vent > 20 kt
SIGMETs :   Divers  Orages  Givrage  Turbulence  Onde Orograph.  Cendres Volcan.






- Altitude de l'aérodrome : 34 ft
- Code IATA : KRF


ESNK - Kramfors Sollefteå

DERNIER METAR :
  • 210020Z AUTO 00000KT 0150 R17/0800N R35/0650N FZFG VV002 M02/M02 Q1030

METARs EXPIRÉS :
  • 202350Z AUTO 00000KT 0150 R17/0600N R35/0750N FZFG VV003 M02/M02 Q1030
  • 202320Z AUTO 00000KT 0150 R17/0650N R35/0650N FZFG VV002 M02/M02 Q1031
  • 202250Z AUTO 00000KT 0150 R17/0650N R35/0700N FZFG VV002 M02/M02 Q1030
  • 202220Z AUTO 00000KT 0150 R17/0650N R35/0800N FZFG VV002 M02/M02 Q1030
  • 202150Z AUTO 00000KT 0150 R17/0700N R35/0650N FZFG VV003 M02/M02 Q1030

Prévision TAF périmée.



MET'MAP, la Météo Aéronautique d'un coup d'oeil ! - Copyright ORBIFLY Décembre 2007 - Disclaimer

ORBIFLY MET'MAP TEAM :

Programmation & Développement : Alexandra Zaïnal
Conception & Développement : Baudouin d'Aumeries
Co-Programmation & Développement : Marc-Olivier Méhu
Soutien technique & logistique : Manuel Goepfert

Contact : metmap@orbifly.com




SOURCES & CREDITS :

   NOAA